Nassim Bounedjah

Olheiro-Chefe - USM Alger
4 Abr 2027
Domingo
Processo

Personalidade

Adaptabilidade (4) Ambição (1) Controvérsia (17) Lealdade (8) Pressão (1) Profissionalismo (2) Espírito Esportivo (18) Temperamento (3)

Perfil

Estilo de Treinamento Democrático
Licença Continental A
Determinação 7
Gestão de Pessoas 10
Motivação 12
Disciplina 10
Satisfação no Trabalho
100%
Fadiga
0%
Função Olheiro-Chefe
Salário 33.4K p/s
Contrato 14.03.2028

Desempenho

Comportamento Bom
Eficácia do Treinamento
28%
Desenvolvimento do Jogador
55%
Prevenção de Lesões
35%
Implementação Tática
30%

Eventos Recentes

Avaliou um jogador agora
Participou de uma reunião de recrutamento agora
Recomendou um alvo de transferência agora
Participou de uma reunião de recrutamento agora
Recomendou um alvo de transferência agora
Participou de uma reunião de recrutamento agora
Participou de uma reunião de recrutamento agora
Avaliou um jogador agora

Monitorando agora

187
Jogador Clube Status Habilidade Confiança Observado Última observação Último voto
Jakub Jendryka Ruch Ativo 89 / 103 40% 3 03.04.2027 -
Jake Batty Burton Albion Ativo 96 / 99 40% 2 03.04.2027 -
Daniel Banjaqui Benfica Ativo 110 / 132 40% 1 03.04.2027 -
Sabil Hansen Randers Ativo 105 / 124 40% 2 02.04.2027 -
Papa Gassama US Bougouba Ativo 67 / 82 40% 2 02.04.2027 -
Jakub Adkonis Lechia Ativo 87 / 98 40% 1 02.04.2027 -
Lucas Jetten Cambuur Ativo 110 / 116 40% 2 31.03.2027 -
Jacopo Bacci Sorrento Ativo 100 / 109 40% 2 31.03.2027 -
Vinícius Lira Santos Ativo 119 / 115 40% 3 29.03.2027 -
Riley Owen Pergolettese Ativo 105 / 108 40% 1 29.03.2027 -
James Dornelly Peterborough United Ativo 100 / 118 40% 2 28.03.2027 -
Alejo Fernández Kayserispor Ativo 91 / 104 40% 3 26.03.2027 -
Bohdan Budko AZ Ativo 111 / 113 40% 1 26.03.2027 -
Alessio Insignito Spezia Ativo 96 / 101 40% 1 26.03.2027 -
Gopolang Taunyane Wa All Stars Ativo 92 / 114 40% 1 25.03.2027 -
Eduardo Felicíssimo Sporting CP Ativo 103 / 114 40% 2 24.03.2027 -
Khalfan Nader Al Shaab Ativo 99 / 104 40% 1 20.03.2027 -
Maldini Kacurri Grimsby Town Ativo 95 / 94 40% 2 19.03.2027 -
Elie N'Gatta Sochaux Ativo 97 / 91 40% 1 19.03.2027 -
Jaygo van Ommeren Utrecht Ativo 103 / 124 40% 1 19.03.2027 -
Luca Barani Forli Ativo 92 / 99 40% 1 14.03.2027 -
Maxim Radchenko Rostov Ativo 78 / 89 40% 2 12.03.2027 -
Surprise Manthosi Polokwane City Ativo 92 / 108 40% 1 11.03.2027 -
Edwin Asamoah Berekum Chelsea Ativo 89 / 98 40% 2 08.03.2027 -
Mobin Dehghan Al Wahda Ativo 91 / 102 40% 1 08.03.2027 -
Sergey Chernov Zenit Ativo 79 / 71 40% 1 07.03.2027 -
Momodou Jatta Al Jazira Ativo 99 / 110 40% 1 07.03.2027 -
Simone Kosijer Triestina Ativo 91 / 99 40% 1 06.03.2027 -
Ibrahim Khalfan Baniyas Ativo 90 / 95 40% 1 06.03.2027 -
Gonçalo Oliveira Benfica Ativo 105 / 117 40% 2 05.03.2027 -
Davinchi Getafe Ativo 114 / 132 40% 1 05.03.2027 -
Konta Ismaily Ativo 87 / 101 40% 1 05.03.2027 -
Dmitry Borodin Dinamo St Petersburg Ativo 77 / 76 40% 1 03.03.2027 -
Fuzy Taylor Medeama Ativo 83 / 82 40% 1 03.03.2027 -
Lucas Mbamba Westerlo Ativo 85 / 83 40% 1 03.03.2027 -
Dmitry Pestryakov Dinamo Moscow Ativo 112 / 136 40% 1 02.03.2027 -
Dadi Mouaki CS Constantine Ativo 93 / 94 76% 1 18.01.2027 Aprovar
Ali Saleh Al Wasl Ativo 119 / 112 40% 3 13.01.2027 -
Abdullah Al-Khaibari Al-Nassr Ativo 113 / 111 40% 1 13.01.2027 -
Kwadwo Kudus Hasaacas Ativo 102 / 91 40% 1 13.01.2027 -
Roberto Iliev Slavia Sofia Ativo 93 / 92 40% 4 12.01.2027 -
Teboho Tau Ajax Cape Town Ativo 105 / 101 40% 4 12.01.2027 -
Brian Figueroa Morelia Ativo 115 / 112 40% 4 12.01.2027 -
Pinna Fortaleza Ativo 93 / 94 40% 1 12.01.2027 -
Haman Mandjan Al-Ra'ed Ativo 103 / 95 40% 1 12.01.2027 -
Álvaro Medrán Al-Ettifaq Ativo 131 / 129 40% 2 10.01.2027 -
Gift Ngcobo SuperSport United Ativo 110 / 125 40% 2 10.01.2027 -
Peter Olayinka Al-Wehda Ativo 118 / 116 40% 1 10.01.2027 -
Mehdi Zeffane ES Mostaganem Perdido 106 / 118 76% 1 07.01.2027 -
Nabil Alioui Damac Ativo 116 / 108 40% 7 01.01.2027 -
Jonathan Sulemana BA All Stars Perdido 108 / 103 40% 1 01.01.2027 -
Hicham Khaloua Al-Ra'ed Ativo 100 / 92 40% 3 31.12.2026 -
Mohau Nkota Al-Ettifaq Ativo 125 / 122 40% 7 30.12.2026 -
Robert Ndip Tambe ES Mostaganem Ativo 105 / 105 42% 1 / 1m 30.12.2026 -
Ali Haroun ES Mostaganem Ativo 96 / 96 30% 1 / 1m 30.12.2026 -
Mustafa Hekimoğlu Paradou Ativo 121 / 129 30% 1 / 1m 30.12.2026 -
Son Ludogorets Ativo 120 / 138 40% 1 30.12.2026 -
Ante Roguljić Diosgyor Ativo 123 / 116 40% 1 30.12.2026 -
Velemseni Ndwandwe Golden Arrows Ativo 110 / 106 40% 2 28.12.2026 -
Saad Al-Salouli Al-Ra'ed Ativo 103 / 102 40% 1 28.12.2026 -
Younes El Bahraoui Al-Taawoun Ativo 108 / 110 40% 7 27.12.2026 Observar
Lebohang Maboe Kaizer Chiefs Ativo 112 / 108 40% 3 27.12.2026 -
Amine Bassi CR Belouizdad Ativo 127 / 118 40% 1 27.12.2026 -
Yassine Benzia Al-Fayha Ativo 122 / 116 40% 2 26.12.2026 -
Hassan Saber Ismaily Ativo 71 / 87 40% 2 25.12.2026 -
Ivan Sorokin Spartak Moscow Ativo 76 / 88 40% 1 25.12.2026 -
Hamza Sakhi Hajer Ativo 111 / 106 40% 1 23.12.2026 -
Jason Al-Fayha Ativo 131 / 121 40% 6 22.12.2026 -
Mohamed Kanno Al-Hilal Ativo 123 / 118 40% 6 22.12.2026 -
Trezeguet Al-Riyadh Ativo 131 / 126 40% 4 22.12.2026 -
Agustín Ramírez Inter Ativo 117 / 102 40% 2 21.12.2026 -
Abderrahmane Meziane CR Belouizdad Ativo 110 / 101 40% 1 21.12.2026 -
Alfredo Garcia La Equidad Ativo 155 / 153 40% 3 18.12.2026 -
Lebogang Erasmus Platinum Stars Ativo 116 / 122 40% 2 18.12.2026 -
Jordan Roberts Stevenage Ativo 108 / 105 40% 1 17.12.2026 -
Ibrahim Cissoko Zwolle Ativo 118 / 123 40% 1 17.12.2026 -
Matías González Volos NPS Ativo 113 / 127 40% 1 16.12.2026 -
Alejandro Andrade Morelia Ativo 106 / 118 40% 1 16.12.2026 -
Siyanda Msani University of Pretoria Ativo 112 / 104 40% 1 16.12.2026 -
Hassan Al-Enezi Al-Mojzel Ativo 83 / 78 40% 4 14.12.2026 -
Sultan Mandash Al-Hilal Ativo 117 / 111 40% 5 14.12.2026 -
Jean Charles Ahoua Al-Faisaly Ativo 102 / 102 40% 2 14.12.2026 -
Faisal Al-Abdulwahed Al-Fateh Ativo 91 / 87 40% 2 14.12.2026 -
Ricardo Solbes Unión de Santa Fe Ativo 92 / 103 40% 2 14.12.2026 -
Tiago Pucciarelli FK Senica Ativo 100 / 97 40% 3 13.12.2026 -
Adam Pudil Zlate Moravce Ativo 85 / 92 40% 1 13.12.2026 -
Sergey Gaiduk Salyut Ativo 75 / 72 40% 1 13.12.2026 -
Youssef Hassan Al Shabab Ativo 118 / 124 40% 2 11.12.2026 -
Pedro Rebocho Al-Khaleej Ativo 118 / 119 40% 2 10.12.2026 -
Valentín Vada Damac Ativo 119 / 119 40% 2 10.12.2026 -
Mohamed El Khaloui Al Dhafra Ativo 108 / 106 40% 1 09.12.2026 -
Firas Ben Larbi Sharjah Ativo 123 / 119 40% 5 08.12.2026 -
Jobson Al Dhafra Ativo 125 / 130 40% 4 08.12.2026 Observar
Ibrahim Bayesh Al Dhafra Ativo 124 / 125 40% 1 08.12.2026 -
Brahian Palacios Al Wasl Ativo 118 / 111 40% 3 07.12.2026 -
Nicolás Giménez Al Wasl Ativo 126 / 128 40% 2 07.12.2026 Mais informações
Moussa N'Diaye Al Nasr Ativo 115 / 125 40% 3 06.12.2026 -
Nduduzo Sibiya Golden Arrows Ativo 114 / 102 40% 1 06.12.2026 -
Brooklyn Poggenpoel Maritzburg United Ativo 116 / 121 40% 1 06.12.2026 -
Mackenzie Hunt Baniyas Ativo 98 / 110 40% 1 06.12.2026 -
Luther Zwane Platinum Stars Ativo 103 / 110 40% 5 04.12.2026 -
Brahima Diarra Al Wahda Ativo 117 / 120 40% 5 04.12.2026 -
Kristoffer Zachariassen Ferencvaros Ativo 115 / 132 40% 2 04.12.2026 -
Marcel Reguła Zaglebie Ativo 108 / 122 40% 2 04.12.2026 -
Julián Vignolo Toulouse FC Ativo 109 / 106 40% 1 04.12.2026 -
João Moreira Al Nasr Ativo 116 / 127 40% 2 03.12.2026 -
Kyreece Lisbie Colchester United Ativo 110 / 108 40% 1 03.12.2026 -
Bernardo Folha Al Wahda Ativo 114 / 122 40% 2 01.12.2026 -
Luke Baartman Chippa United Ativo 109 / 109 40% 5 29.11.2026 -
Suhail Al-Noobi Baniyas Ativo 109 / 114 40% 1 29.11.2026 -
Caio Lucas Al Ain Ativo 128 / 118 40% 2 26.11.2026 -
Ahmed Hamdi Ittihad Ativo 111 / 103 40% 1 26.11.2026 -
Ronaldo Maarman University of Pretoria Ativo 100 / 103 40% 1 25.11.2026 -
Abdulmalik Al-Jaber Al-Nassr Ativo 99 / 105 40% 2 23.11.2026 -
Iuri Medeiros Ujpest Ativo 126 / 113 40% 1 23.11.2026 -
Kaku Al Ain Ativo 123 / 119 40% 1 22.11.2026 -
Leandrinho Sharjah Ativo 114 / 119 40% 3 21.11.2026 -
Mihai Lixandru Al-Fateh Ativo 115 / 109 40% 1 20.11.2026 -
Alfa Semedo Al-Fayha Ativo 116 / 121 40% 3 19.11.2026 -
Hassan Al Menhali Al Shabab Ativo 107 / 110 40% 2 19.11.2026 -
Nasser Al Shamsi Al Shabab Ativo 113 / 124 40% 1 19.11.2026 -
Lancine Bamba Al Wasl Ativo 79 / 79 40% 2 17.11.2026 -
Ben Ahmed Kohili Paradou Ativo 99 / 111 40% 2 13.11.2026 Mais informações
Saeed Al Naqbi Al Ahli Ativo 117 / 127 40% 1 13.11.2026 -
Erik Al Ahli Ativo 118 / 112 40% 3 08.11.2026 -
Igor Serrote Al Jazira Ativo 114 / 110 40% 1 08.11.2026 -
Amar Yasser AE Kition Ativo 75 / 80 40% 1 08.11.2026 -
Maid Ahmed Al Wahda Ativo 72 / 70 40% 1 08.11.2026 -
Alan Coria Defensa y Justicia Ativo 103 / 106 40% 3 07.11.2026 -
Csanád Vilmos Dénes Debrecen Ativo 97 / 123 40% 1 07.11.2026 -
Richard Akonnor Al Jazira Ativo 108 / 109 40% 2 04.11.2026 -
Mohammed Al-Dossary Al-Ra'ed Ativo 99 / 95 40% 1 04.11.2026 -
Julián Palacios Unión de Santa Fe Ativo 123 / 114 40% 1 04.11.2026 -
Karim El Berkaoui Al Dhafra Ativo 125 / 123 40% 2 01.11.2026 -
Juanjo Narváez Al-Ra'ed Ativo 117 / 117 40% 2 01.11.2026 -
Amer Ismail Al Ahli Ativo 119 / 122 40% 2 31.10.2026 -
Hamed Al-Ghamdi Al-Wehda Ativo 108 / 111 40% 1 31.10.2026 -
Matías Pellegrini Vélez Ativo 122 / 117 40% 1 30.10.2026 -
Saeed Al Naqbi Al Shabab Ativo 106 / 101 40% 1 30.10.2026 -
Ali Adnan Al-Wehda Ativo 106 / 115 40% 2 29.10.2026 -
Ousmane Camara Sharjah Ativo 121 / 115 40% 1 29.10.2026 -
Hassan Beja AFC Leopards Ativo 73 / 100 40% 5 28.10.2026 -
Aljoša Matko Ujpest Ativo 112 / 124 40% 2 28.10.2026 -
Ziad Ayoub Al Ahly Ativo 74 / 85 40% 2 26.10.2026 -
Renato Tapia Al Wasl Ativo 135 / 142 40% 3 26.10.2026 -
Hugo Al Wasl Ativo 119 / 108 40% 1 26.10.2026 -
Saviour Godwin Baniyas Ativo 120 / 125 40% 3 23.10.2026 -
Mohammad Ghorbani Al Wahda Ativo 114 / 109 40% 2 20.10.2026 -
Amur Balkizov Kaluga Ativo 70 / 78 40% 1 20.10.2026 -
Nasser Saeed Al Shaab Ativo 108 / 112 40% 2 17.10.2026 -
Saeed Baattia Al-Fateh Ativo 109 / 106 40% 2 17.10.2026 -
Bradley Mothiba SuperSport United Ativo 109 / 107 40% 1 17.10.2026 -
Vitaly Dunay (Karpenko) Chaika Ativo 83 / 77 40% 1 13.10.2026 -
Trévis Dago Stade Lavallois Ativo 102 / 106 40% 2 12.10.2026 -
Muhamed Suwareh Al Dhafra Ativo 76 / 82 40% 1 12.10.2026 -
Abdalla Ramadan Al Jazira Ativo 109 / 118 40% 1 07.10.2026 -
Kamogelo Sebelebele Orlando Pirates Ativo 105 / 127 40% 1 07.10.2026 -
Walid Al Junaibi Al Shabab Ativo 115 / 109 40% 1 06.10.2026 -
Manuel Rodríguez Millonarios Ativo 94 / 103 40% 1 05.10.2026 -
Marko Brkić NK Krka Ativo 88 / 110 40% 1 27.09.2026 -
Ibrahim Al-Zahrani Al-Taawoun Ativo 68 / 65 40% 1 22.09.2026 -
Alan Salas San Lorenzo Ativo 100 / 115 40% 1 16.09.2026 -
Sam Svanberg BK Hacken Ativo 69 / 86 40% 1 14.09.2026 -
Adham Alaa Ittihad Ativo 66 / 71 40% 1 14.09.2026 -
Samuel Oppong Al Ahly Ativo 73 / 78 40% 1 13.09.2026 -
Louay Labidi Al-Hilal Ativo 65 / 77 40% 1 12.09.2026 -
Lucciano Reinoso Caracas Ativo 81 / 89 40% 1 11.09.2026 -
Ruben Ramos LA Galaxy Ativo 86 / 84 40% 1 11.09.2026 -
Facundo García Almirante Brown Ativo 94 / 95 40% 1 10.09.2026 -
Bruno Hernández Cracovia Ativo 88 / 88 40% 1 10.09.2026 -
Moise Mbombo Kenya Police Ativo 80 / 75 40% 1 10.09.2026 -
Lautaro Díaz San Martín Ativo 78 / 88 40% 1 09.09.2026 -
Nikita Kuzin Kaluga Ativo 71 / 83 40% 1 09.09.2026 -
Ibrahim Yaqoob Al Ahli Ativo 109 / 118 40% 1 07.09.2026 -
Nawaf Al-Habashi Al-Hilal Ativo 110 / 104 40% 1 07.09.2026 -
Aubrey Modiba Mamelodi Sundowns Ativo 119 / 123 40% 1 05.09.2026 -
Hlompho Mothiba Ajax Cape Town Ativo 64 / 60 40% 1 04.09.2026 -
Abdellah Debbari ASO Chlef Ativo 92 / 100 72% 1 24.08.2026 Aprovar
Shane Nti Brighton Ativo 96 / 98 40% 1 23.08.2026 -
Nika Kvaratskhelia Dinamo Batumi Ativo 70 / 76 40% 1 20.08.2026 -
Hristo Tonev Slavia Sofia Ativo 64 / 72 40% 2 13.08.2026 -
Rúben Canedo Al Wahda Ativo 110 / 114 40% 1 09.08.2026 -
Yakou Meïté Damac Ativo 106 / 106 40% 1 09.08.2026 -
Vakhtang Salia Newcastle United Ativo 88 / 97 40% 1 06.08.2026 -
Nawaf Al-Bishri Al-Hazem Ativo 74 / 86 40% 1 06.08.2026 -
Mamadou Ndiaye Al Jazira Ativo 73 / 69 40% 1 05.08.2026 -
Juan Otero Gijón Ativo 135 / 139 40% 1 01.08.2026 -